Time;durP1;ratioP1;P1;durP2;ratioP2;P2;SDS_P1;SDS_P2;PMS_P1;PMS_P2;Temp;Humidity;BMP_temperature;BMP_pressure;BME280_temperature;BME280_humidity;BME280_pressure;Samples;Min_cycle;Max_cycle;Signal;HPM_P1;HPM_P2
2022/03/26 00:01:36;;;;;;;15.57;9.07;;;10.90;53.80;;;;;;5031786;28;20013;-71
2022/03/26 00:04:01;;;;;;;14.93;8.18;;;10.80;53.80;;;;;;5037861;28;20017;-71
2022/03/26 00:06:27;;;;;;;12.98;7.85;;;10.80;53.80;;;;;;5031875;28;20403;-71
2022/03/26 00:08:52;;;;;;;14.73;8.60;;;10.90;53.80;;;;;;5031799;28;20048;-71
2022/03/26 00:11:18;;;;;;;15.85;8.73;;;10.80;53.80;;;;;;5029751;28;20021;-70
2022/03/26 00:13:43;;;;;;;17.80;8.77;;;10.80;53.90;;;;;;5032792;28;20026;-70
2022/03/26 00:16:10;;;;;;;14.77;8.05;;;10.80;54.00;;;;;;5041580;28;20022;-70
2022/03/26 00:18:35;;;;;;;16.40;8.07;;;10.80;54.10;;;;;;5032206;28;20028;-70
2022/03/26 00:21:01;;;;;;;12.25;7.68;;;10.80;54.10;;;;;;5035357;28;20030;-70
2022/03/26 00:23:26;;;;;;;18.45;8.48;;;10.70;54.10;;;;;;5039945;28;20427;-72
2022/03/26 00:25:52;;;;;;;13.25;8.77;;;10.70;54.20;;;;;;5034294;28;20373;-72
2022/03/26 00:28:18;;;;;;;15.43;8.35;;;10.70;54.20;;;;;;5032241;28;20067;-72
2022/03/26 00:30:43;;;;;;;12.57;7.65;;;10.70;54.20;;;;;;5028530;28;20034;-72
2022/03/26 00:33:09;;;;;;;11.90;7.65;;;10.70;54.20;;;;;;5031011;28;20033;-71
2022/03/26 00:35:36;;;;;;;15.35;8.73;;;10.70;54.20;;;;;;5030955;28;20044;-72
2022/03/26 00:38:01;;;;;;;15.20;8.90;;;10.70;54.30;;;;;;5031094;28;20395;-71
2022/03/26 00:40:27;;;;;;;13.45;9.05;;;10.60;54.40;;;;;;5030425;28;20026;-72
2022/03/26 00:42:53;;;;;;;15.63;8.82;;;10.60;54.40;;;;;;5030896;28;20360;-70
2022/03/26 00:45:19;;;;;;;18.00;9.35;;;10.60;54.50;;;;;;5031108;28;20051;-72
2022/03/26 00:47:44;;;;;;;14.65;9.27;;;10.60;54.60;;;;;;5031697;28;20032;-72
2022/03/26 00:50:11;;;;;;;14.20;8.30;;;10.50;54.70;;;;;;5030082;28;20037;-71
2022/03/26 00:52:37;;;;;;;15.70;9.75;;;10.50;54.80;;;;;;5030586;28;20057;-71
2022/03/26 00:55:04;;;;;;;16.30;9.25;;;10.50;55.00;;;;;;5031223;28;20025;-71
2022/03/26 00:57:30;;;;;;;19.80;10.98;;;10.50;55.40;;;;;;5030551;28;20223;-71
2022/03/26 00:59:58;;;;;;;17.27;9.65;;;10.40;55.30;;;;;;5029963;28;20480;-71
2022/03/26 01:02:24;;;;;;;15.32;9.85;;;10.40;55.40;;;;;;5030020;28;20045;-71
2022/03/26 01:04:49;;;;;;;16.80;10.23;;;10.30;55.40;;;;;;5028968;28;20032;-72
2022/03/26 01:07:15;;;;;;;15.88;9.95;;;10.30;55.60;;;;;;5030600;28;20034;-71
2022/03/26 01:09:41;;;;;;;20.85;10.75;;;10.20;55.70;;;;;;5025685;28;20030;-71
2022/03/26 01:12:07;;;;;;;16.35;9.57;;;10.20;55.90;;;;;;5024448;28;20029;-71
2022/03/26 01:14:33;;;;;;;17.02;10.27;;;10.20;56.00;;;;;;5030520;28;20033;-71
2022/03/26 01:17:00;;;;;;;16.33;8.50;;;10.10;56.00;;;;;;5029980;28;20025;-71
2022/03/26 01:19:25;;;;;;;13.82;8.57;;;10.10;56.00;;;;;;5028570;28;20100;-71
2022/03/26 01:21:51;;;;;;;17.10;10.00;;;10.10;56.00;;;;;;5030364;28;20116;-70
2022/03/26 01:24:17;;;;;;;19.52;9.82;;;10.10;56.40;;;;;;5028727;28;20529;-71
2022/03/26 01:26:43;;;;;;;18.17;10.38;;;10.00;56.40;;;;;;5029974;28;20013;-71
2022/03/26 01:29:09;;;;;;;16.98;9.45;;;10.00;56.50;;;;;;5029876;28;20033;-70
2022/03/26 01:31:35;;;;;;;18.50;10.38;;;10.00;56.40;;;;;;5029763;28;20029;-70
2022/03/26 01:34:01;;;;;;;14.23;9.07;;;10.00;56.50;;;;;;5029807;28;20534;-71
2022/03/26 01:36:28;;;;;;;14.93;10.00;;;9.90;56.50;;;;;;5029418;28;20033;-71
2022/03/26 01:38:53;;;;;;;16.75;10.27;;;9.90;56.70;;;;;;5029978;28;20013;-71
2022/03/26 01:41:20;;;;;;;18.42;9.98;;;9.90;56.80;;;;;;5029992;28;20048;-71
2022/03/26 01:43:46;;;;;;;17.65;10.40;;;9.80;56.90;;;;;;5030029;28;20051;-71
2022/03/26 01:46:12;;;;;;;17.85;11.38;;;9.80;57.00;;;;;;5029560;28;20029;-72
2022/03/26 01:48:39;;;;;;;19.08;10.18;;;9.70;57.10;;;;;;5028254;28;20033;-72
2022/03/26 01:51:14;;;;;;;19.33;11.18;;;9.70;57.10;;;;;;5029719;28;20496;-72
2022/03/26 01:53:41;;;;;;;18.55;9.65;;;9.70;57.40;;;;;;5030017;28;20076;-71
2022/03/26 01:56:06;;;;;;;20.05;11.40;;;9.70;57.10;;;;;;5030438;28;20026;-72
2022/03/26 01:58:33;;;;;;;19.17;10.75;;;9.70;57.10;;;;;;5028082;28;20036;-70
2022/03/26 02:00:58;;;;;;;17.63;10.77;;;9.70;57.20;;;;;;5029187;28;20037;-71
2022/03/26 02:03:24;;;;;;;26.23;13.50;;;9.70;57.20;;;;;;5029980;28;20033;-70
2022/03/26 02:05:50;;;;;;;18.70;11.32;;;9.60;57.50;;;;;;5025030;28;20512;-71
2022/03/26 02:08:16;;;;;;;17.48;10.00;;;9.60;57.40;;;;;;5031556;28;20033;-71
2022/03/26 02:10:41;;;;;;;18.33;10.45;;;9.60;57.30;;;;;;5039470;28;20040;-71
2022/03/26 02:13:06;;;;;;;19.85;10.48;;;9.60;57.20;;;;;;5033808;28;20697;-72
2022/03/26 02:15:32;;;;;;;18.88;10.32;;;9.60;57.20;;;;;;5041840;28;20099;-71
2022/03/26 02:17:57;;;;;;;17.30;10.48;;;9.60;57.10;;;;;;5033827;28;20528;-71
2022/03/26 02:20:23;;;;;;;19.27;11.00;;;9.60;57.20;;;;;;5037359;28;20028;-71
2022/03/26 02:22:49;;;;;;;19.30;10.70;;;9.60;57.20;;;;;;5032777;28;20036;-71
2022/03/26 02:25:15;;;;;;;20.08;12.18;;;9.60;57.10;;;;;;5031451;28;20040;-71
2022/03/26 02:27:40;;;;;;;21.90;11.45;;;9.60;57.10;;;;;;5031703;28;20021;-71
2022/03/26 02:30:06;;;;;;;19.70;12.18;;;9.60;57.00;;;;;;5033048;28;20377;-71
2022/03/26 02:32:32;;;;;;;18.48;10.95;;;9.60;57.00;;;;;;5040528;28;20024;-71
2022/03/26 02:34:58;;;;;;;20.85;12.52;;;9.50;56.90;;;;;;5041407;28;20017;-71
2022/03/26 02:37:24;;;;;;;22.35;12.57;;;9.50;57.00;;;;;;5033370;28;20033;-72
2022/03/26 02:39:49;;;;;;;18.83;11.57;;;9.50;57.00;;;;;;5033234;28;20030;-70
2022/03/26 02:42:16;;;;;;;20.40;11.57;;;9.50;57.00;;;;;;5032540;28;20076;-70
2022/03/26 02:44:42;;;;;;;16.77;9.95;;;9.50;57.10;;;;;;5033105;28;20108;-71
2022/03/26 02:47:09;;;;;;;18.48;9.88;;;9.50;56.90;;;;;;5032632;28;20573;-70
2022/03/26 02:49:35;;;;;;;17.35;9.88;;;9.50;56.80;;;;;;5033102;28;20033;-71
2022/03/26 02:52:00;;;;;;;21.08;10.95;;;9.60;56.70;;;;;;5032855;28;20083;-70
2022/03/26 02:54:26;;;;;;;21.52;12.10;;;9.50;56.60;;;;;;5033010;28;20033;-70
2022/03/26 02:56:54;;;;;;;23.38;13.40;;;9.50;56.60;;;;;;5033137;28;20025;-70
2022/03/26 02:59:23;;;;;;;22.50;13.00;;;9.50;56.80;;;;;;5032913;28;20030;-72
2022/03/26 03:01:50;;;;;;;25.98;14.13;;;9.50;56.80;;;;;;5031157;28;20483;-71
2022/03/26 03:04:16;;;;;;;21.67;12.55;;;9.50;56.80;;;;;;5032621;28;20026;-70
2022/03/26 03:06:41;;;;;;;22.63;13.20;;;9.50;56.80;;;;;;5033535;28;20373;-70
2022/03/26 03:09:07;;;;;;;26.25;15.02;;;9.50;56.80;;;;;;5032506;28;20483;-72
2022/03/26 03:11:34;;;;;;;23.27;13.30;;;9.50;56.80;;;;;;5031133;28;20095;-72
2022/03/26 03:14:00;;;;;;;23.73;12.90;;;9.40;56.80;;;;;;5032144;28;20110;-72
2022/03/26 03:16:25;;;;;;;23.55;13.18;;;9.40;56.90;;;;;;5032611;28;20488;-72
2022/03/26 03:18:51;;;;;;;22.70;12.90;;;9.40;56.90;;;;;;5031623;28;20095;-70
2022/03/26 03:21:17;;;;;;;22.40;13.27;;;9.40;57.00;;;;;;5030850;28;20067;-71
2022/03/26 03:23:43;;;;;;;22.52;12.52;;;9.40;57.00;;;;;;5032660;28;20096;-69
2022/03/26 03:26:08;;;;;;;22.27;12.15;;;9.40;57.00;;;;;;5032047;28;20431;-70
2022/03/26 03:28:34;;;;;;;21.75;12.70;;;9.40;57.00;;;;;;5031997;28;20036;-71
2022/03/26 03:31:00;;;;;;;23.08;13.38;;;9.40;57.00;;;;;;5032176;28;20120;-70
2022/03/26 03:33:25;;;;;;;28.90;15.45;;;9.40;57.10;;;;;;5032118;28;20080;-69
2022/03/26 03:35:51;;;;;;;22.88;13.52;;;9.30;57.30;;;;;;5032073;28;20518;-71
2022/03/26 03:38:16;;;;;;;25.65;14.23;;;9.30;57.30;;;;;;5032165;28;20392;-71
2022/03/26 03:40:42;;;;;;;29.42;17.13;;;9.30;57.30;;;;;;5029894;28;20017;-72
2022/03/26 03:43:07;;;;;;;25.80;14.15;;;9.30;57.60;;;;;;5032017;28;20029;-72
2022/03/26 03:45:34;;;;;;;24.65;14.82;;;9.20;57.60;;;;;;5032135;28;20025;-72
2022/03/26 03:48:00;;;;;;;24.95;14.73;;;9.20;57.60;;;;;;5032217;28;20029;-70
2022/03/26 03:50:26;;;;;;;24.02;13.88;;;9.20;57.60;;;;;;5032211;28;20507;-71
2022/03/26 03:52:52;;;;;;;26.08;15.40;;;9.20;57.60;;;;;;5031235;28;20013;-71
2022/03/26 03:55:17;;;;;;;25.92;14.57;;;9.30;57.60;;;;;;5031553;28;20025;-71
2022/03/26 03:57:44;;;;;;;27.02;15.90;;;9.30;57.60;;;;;;5031704;28;20065;-72
2022/03/26 04:00:11;;;;;;;27.30;15.10;;;9.30;57.70;;;;;;5031702;28;20075;-72
2022/03/26 04:02:37;;;;;;;28.08;16.17;;;9.30;57.70;;;;;;5031314;28;20107;-71
2022/03/26 04:05:03;;;;;;;26.02;14.60;;;9.30;57.80;;;;;;5031673;28;20048;-71
2022/03/26 04:07:29;;;;;;;26.80;14.45;;;9.30;57.70;;;;;;5016762;28;20148;-70
2022/03/26 04:09:55;;;;;;;29.13;16.80;;;9.30;57.80;;;;;;5030035;28;20462;-72
2022/03/26 04:12:20;;;;;;;33.10;17.48;;;9.30;57.90;;;;;;5029607;28;20033;-70
2022/03/26 04:14:46;;;;;;;31.92;18.65;;;9.20;58.00;;;;;;5028469;28;20022;-72
2022/03/26 04:17:12;;;;;;;34.35;19.42;;;9.20;58.20;;;;;;5031505;28;20045;-70
2022/03/26 04:19:41;;;;;;;32.17;18.52;;;9.10;58.30;;;;;;5031170;28;20022;-71
2022/03/26 04:22:07;;;;;;;32.25;19.40;;;9.10;58.50;;;;;;5031198;28;20034;-70
2022/03/26 04:24:35;;;;;;;31.10;18.88;;;9.00;58.60;;;;;;5030849;28;20075;-70
2022/03/26 04:27:01;;;;;;;32.92;20.35;;;9.00;58.80;;;;;;5031276;28;20120;-70
2022/03/26 04:29:26;;;;;;;39.85;21.88;;;9.00;58.90;;;;;;5030432;28;20515;-69
2022/03/26 04:31:52;;;;;;;33.95;20.67;;;9.00;59.90;;;;;;5030746;28;20037;-70
2022/03/26 04:34:19;;;;;;;34.30;20.45;;;8.90;59.50;;;;;;5030104;28;20029;-70
2022/03/26 04:36:44;;;;;;;30.98;18.50;;;8.90;59.60;;;;;;5026053;28;20014;-70
2022/03/26 04:39:10;;;;;;;34.22;20.48;;;8.90;59.60;;;;;;5023605;28;20029;-71
2022/03/26 04:41:35;;;;;;;36.53;20.50;;;8.90;59.70;;;;;;5025340;28;20388;-71
2022/03/26 04:44:01;;;;;;;33.88;19.98;;;9.00;60.00;;;;;;5042517;28;20398;-70
2022/03/26 04:46:27;;;;;;;35.40;20.38;;;9.00;60.10;;;;;;5029978;28;20021;-71
2022/03/26 04:48:53;;;;;;;34.38;20.55;;;9.00;60.20;;;;;;5037272;28;20128;-70
2022/03/26 04:51:18;;;;;;;32.67;19.20;;;9.00;60.40;;;;;;5034525;28;20033;-70
2022/03/26 04:53:44;;;;;;;31.10;18.00;;;9.10;60.30;;;;;;5034246;28;20045;-70
2022/03/26 04:56:09;;;;;;;32.38;18.17;;;9.10;60.20;;;;;;5031230;28;20697;-69
2022/03/26 04:58:35;;;;;;;31.67;18.92;;;9.20;60.20;;;;;;5032628;28;20139;-70
2022/03/26 05:01:00;;;;;;;33.17;19.85;;;9.20;60.20;;;;;;5030535;28;20026;-71
2022/03/26 05:03:26;;;;;;;30.27;17.38;;;9.20;60.20;;;;;;5030535;28;20054;-70
2022/03/26 05:05:51;;;;;;;31.55;18.80;;;9.20;60.20;;;;;;5033325;28;20039;-70
2022/03/26 05:08:17;;;;;;;32.88;19.67;;;9.20;60.20;;;;;;5030425;28;20033;-70
2022/03/26 05:10:42;;;;;;;33.95;19.17;;;9.20;60.30;;;;;;5028552;28;20034;-71
2022/03/26 05:13:08;;;;;;;31.00;18.40;;;9.20;60.30;;;;;;5030228;28;20032;-70
2022/03/26 05:15:34;;;;;;;30.73;18.35;;;9.20;60.30;;;;;;5030728;28;20499;-70
2022/03/26 05:17:59;;;;;;;30.58;17.92;;;9.20;60.50;;;;;;5030436;28;20320;-71
2022/03/26 05:20:25;;;;;;;30.40;17.95;;;9.20;60.50;;;;;;5028619;28;20116;-72
2022/03/26 05:22:52;;;;;;;29.70;17.45;;;9.20;60.40;;;;;;5030157;28;20025;-69
2022/03/26 05:25:18;;;;;;;31.35;17.33;;;9.20;60.30;;;;;;5029850;28;20026;-69
2022/03/26 05:27:49;;;;;;;30.63;17.45;;;9.20;60.30;;;;;;5029720;28;20079;-70
2022/03/26 05:30:16;;;;;;;29.77;17.75;;;9.30;60.30;;;;;;5029868;28;20108;-69
2022/03/26 05:32:42;;;;;;;31.70;18.85;;;9.20;60.30;;;;;;5030197;28;20029;-70
2022/03/26 05:35:13;;;;;;;31.00;18.00;;;9.30;60.30;;;;;;5030428;28;20017;-69
2022/03/26 05:37:49;;;;;;;29.17;17.63;;;9.30;60.30;;;;;;5028695;28;20383;-68
2022/03/26 05:40:17;;;;;;;30.73;17.67;;;9.30;60.30;;;;;;5028885;28;20109;-68
2022/03/26 05:42:45;;;;;;;28.17;17.25;;;9.30;60.30;;;;;;5029523;28;20025;-69
2022/03/26 05:45:11;;;;;;;29.30;18.02;;;9.30;60.20;;;;;;5029718;28;20037;-69
2022/03/26 05:47:37;;;;;;;29.45;17.73;;;9.40;60.10;;;;;;5029789;28;20035;-70
2022/03/26 05:50:06;;;;;;;28.65;17.02;;;9.40;60.00;;;;;;5029997;28;20095;-69
2022/03/26 05:52:32;;;;;;;28.88;17.23;;;9.50;60.00;;;;;;5029710;28;20068;-68
2022/03/26 05:54:57;;;;;;;30.02;17.88;;;9.50;59.90;;;;;;5029946;28;20029;-68
2022/03/26 05:57:23;;;;;;;31.00;18.33;;;9.50;59.80;;;;;;5029600;28;20187;-69
2022/03/26 05:59:48;;;;;;;33.88;19.20;;;9.60;59.80;;;;;;5028234;28;20026;-69
2022/03/26 06:02:14;;;;;;;34.35;18.77;;;9.60;59.80;;;;;;5031393;28;20021;-68
2022/03/26 06:04:41;;;;;;;29.05;17.83;;;9.70;59.90;;;;;;5031003;28;20704;-69
2022/03/26 06:07:07;;;;;;;33.97;19.17;;;9.80;59.90;;;;;;5029191;28;20108;-70
2022/03/26 06:09:33;;;;;;;29.67;17.85;;;10.10;59.80;;;;;;5037087;28;20166;-69
2022/03/26 06:11:59;;;;;;;29.83;18.30;;;10.90;58.60;;;;;;5030995;28;20044;-70
2022/03/26 06:14:24;;;;;;;30.42;17.63;;;11.90;56.70;;;;;;5029786;28;20029;-69
2022/03/26 06:16:50;;;;;;;32.03;18.98;;;12.80;54.60;;;;;;5028891;28;20129;-70
2022/03/26 06:19:15;;;;;;;33.65;20.60;;;13.70;52.80;;;;;;5027848;28;20020;-71
2022/03/26 06:21:41;;;;;;;32.17;19.75;;;13.80;51.70;;;;;;5028978;28;20518;-69
2022/03/26 06:24:06;;;;;;;31.85;19.77;;;13.40;52.30;;;;;;5029530;28;20553;-69
2022/03/26 06:26:32;;;;;;;29.15;18.80;;;13.00;53.00;;;;;;5028331;28;20018;-70
2022/03/26 06:28:58;;;;;;;31.70;19.95;;;12.80;53.70;;;;;;5029412;28;20025;-70
2022/03/26 06:31:24;;;;;;;29.55;17.48;;;12.60;54.10;;;;;;5028971;28;20030;-70
2022/03/26 06:33:50;;;;;;;32.97;20.52;;;12.50;54.40;;;;;;5029658;28;20298;-71
2022/03/26 06:36:18;;;;;;;32.05;19.80;;;12.40;54.60;;;;;;5028868;28;20053;-71
2022/03/26 06:38:44;;;;;;;34.45;20.50;;;12.30;54.80;;;;;;5027592;28;20010;-70
2022/03/26 06:41:14;;;;;;;30.73;18.88;;;12.30;55.10;;;;;;5029228;28;20022;-70
2022/03/26 06:43:40;;;;;;;32.40;19.20;;;12.20;55.10;;;;;;5027398;28;20476;-70
2022/03/26 06:46:06;;;;;;;28.92;17.95;;;12.20;55.20;;;;;;5033015;28;20034;-70
2022/03/26 06:48:32;;;;;;;31.23;19.33;;;12.20;55.30;;;;;;5031079;28;20032;-69
2022/03/26 06:51:01;;;;;;;28.98;18.25;;;12.20;55.30;;;;;;5038623;28;20415;-70
2022/03/26 06:53:34;;;;;;;28.63;18.33;;;12.20;55.40;;;;;;5043239;28;20026;-70
2022/03/26 06:56:00;;;;;;;25.98;16.20;;;12.10;55.60;;;;;;5029609;28;20057;-70
2022/03/26 06:58:26;;;;;;;29.83;17.65;;;12.10;55.70;;;;;;5032668;28;20469;-70
2022/03/26 07:00:52;;;;;;;29.15;18.05;;;12.20;55.80;;;;;;5031848;28;20072;-70
2022/03/26 07:03:18;;;;;;;30.88;18.42;;;12.20;56.00;;;;;;5014345;28;20492;-69
2022/03/26 07:05:43;;;;;;;25.70;15.75;;;12.30;56.40;;;;;;5025537;28;20026;-70
2022/03/26 07:08:09;;;;;;;23.25;14.77;;;12.30;55.90;;;;;;5027304;28;20083;-69
2022/03/26 07:10:35;;;;;;;23.67;15.38;;;12.30;55.80;;;;;;5030077;28;20037;-69
2022/03/26 07:13:01;;;;;;;24.35;14.45;;;12.50;55.80;;;;;;5032460;28;20029;-70
2022/03/26 07:15:28;;;;;;;23.20;13.30;;;12.50;55.60;;;;;;5039477;28;20027;-71
2022/03/26 07:17:54;;;;;;;21.73;12.88;;;12.60;55.40;;;;;;5031390;28;20506;-70
2022/03/26 07:20:20;;;;;;;24.00;13.43;;;12.80;55.60;;;;;;5035573;28;20101;-70
2022/03/26 07:22:45;;;;;;;24.67;14.48;;;12.80;54.80;;;;;;5032626;28;20476;-69
2022/03/26 07:25:11;;;;;;;22.85;13.15;;;12.90;54.50;;;;;;5035788;28;20091;-72
2022/03/26 07:27:37;;;;;;;26.48;16.00;;;13.00;54.40;;;;;;5036050;28;20064;-71
2022/03/26 07:30:05;;;;;;;27.77;17.05;;;13.00;54.20;;;;;;5044734;28;20036;-70
2022/03/26 07:32:30;;;;;;;26.30;15.93;;;13.10;54.20;;;;;;5030607;28;20041;-69
2022/03/26 07:34:56;;;;;;;28.08;16.30;;;13.10;54.00;;;;;;5041872;28;20030;-70
2022/03/26 07:37:22;;;;;;;25.33;15.48;;;13.10;53.80;;;;;;5027453;28;20030;-70
2022/03/26 07:39:48;;;;;;;24.10;14.15;;;13.20;53.50;;;;;;5030579;28;20113;-70
2022/03/26 07:42:14;;;;;;;26.77;14.25;;;13.20;53.30;;;;;;5032964;28;20065;-70
2022/03/26 07:44:39;;;;;;;26.48;12.80;;;13.20;53.10;;;;;;5032814;28;20108;-70
2022/03/26 07:47:05;;;;;;;26.08;14.75;;;13.30;53.00;;;;;;5032217;28;20037;-71
2022/03/26 07:49:31;;;;;;;26.65;14.95;;;13.40;52.80;;;;;;5031588;28;20026;-71
2022/03/26 07:51:57;;;;;;;23.45;13.93;;;13.50;53.30;;;;;;5031908;28;20634;-70
2022/03/26 07:54:23;;;;;;;22.15;12.57;;;13.60;52.50;;;;;;5032467;28;20052;-70
2022/03/26 07:56:49;;;;;;;22.85;12.77;;;13.70;52.30;;;;;;5032217;28;20029;-70
2022/03/26 07:59:14;;;;;;;24.38;14.23;;;13.80;52.10;;;;;;5031790;28;20051;-69
2022/03/26 08:01:40;;;;;;;24.48;14.05;;;13.90;52.00;;;;;;5031660;28;20037;-71
2022/03/26 08:04:05;;;;;;;24.25;14.43;;;14.00;51.90;;;;;;5030805;28;20025;-71
2022/03/26 08:06:31;;;;;;;21.10;12.50;;;14.00;51.80;;;;;;5030478;28;20462;-70
2022/03/26 08:08:56;;;;;;;20.80;11.88;;;14.20;51.70;;;;;;5029151;28;20025;-71
2022/03/26 08:11:22;;;;;;;21.30;11.18;;;14.30;51.50;;;;;;5030979;28;20026;-72
2022/03/26 08:13:48;;;;;;;25.13;13.73;;;14.30;51.40;;;;;;5029949;28;20418;-71
2022/03/26 08:16:13;;;;;;;21.27;11.73;;;14.30;51.20;;;;;;5029282;28;20061;-71
2022/03/26 08:18:40;;;;;;;20.38;11.35;;;14.40;51.20;;;;;;5025194;28;20053;-71
2022/03/26 08:21:06;;;;;;;19.08;10.75;;;14.30;51.10;;;;;;5021720;28;20025;-71
2022/03/26 08:23:32;;;;;;;19.15;11.00;;;14.40;51.10;;;;;;5030174;28;20563;-71
2022/03/26 08:28:41;;;;;;;19.10;10.48;;;14.40;50.90;;;;;;5029644;28;20044;-71
2022/03/26 08:31:10;;;;;;;19.17;11.85;;;14.50;50.80;;;;;;5039921;28;20033;-70
2022/03/26 08:33:36;;;;;;;19.48;11.00;;;14.60;50.70;;;;;;5029762;28;20431;-71
2022/03/26 08:36:02;;;;;;;19.45;11.32;;;14.70;50.50;;;;;;5032019;28;20021;-71
2022/03/26 08:38:28;;;;;;;24.27;13.77;;;14.70;50.40;;;;;;5030558;28;20025;-71
2022/03/26 08:40:54;;;;;;;19.55;11.38;;;14.90;50.30;;;;;;5038695;28;20104;-71
2022/03/26 08:43:20;;;;;;;21.65;12.73;;;14.90;50.20;;;;;;5032291;28;20025;-71
2022/03/26 08:45:45;;;;;;;21.02;12.20;;;14.90;50.10;;;;;;5041397;28;20036;-71
2022/03/26 08:48:11;;;;;;;19.75;11.32;;;15.00;50.10;;;;;;5035323;28;20507;-71
2022/03/26 08:50:36;;;;;;;22.33;11.70;;;15.00;50.10;;;;;;5038000;28;20361;-71
2022/03/26 08:53:02;;;;;;;20.45;12.68;;;15.10;50.00;;;;;;5040427;28;20057;-71
2022/03/26 08:55:28;;;;;;;20.80;11.35;;;15.20;50.00;;;;;;5032360;28;20068;-71
2022/03/26 08:57:53;;;;;;;20.05;11.30;;;15.20;49.80;;;;;;5048807;28;20036;-71
2022/03/26 09:00:20;;;;;;;21.48;12.70;;;15.30;49.70;;;;;;5035549;28;20032;-71
2022/03/26 09:02:45;;;;;;;27.08;14.60;;;15.40;49.80;;;;;;5051935;28;20027;-71
2022/03/26 09:05:15;;;;;;;19.35;12.10;;;15.40;49.60;;;;;;5038913;28;20100;-71
2022/03/26 09:07:41;;;;;;;17.45;9.88;;;15.50;49.80;;;;;;5030007;28;20026;-71
2022/03/26 09:10:07;;;;;;;20.45;11.57;;;15.60;49.70;;;;;;5030563;28;20076;-71
2022/03/26 09:12:33;;;;;;;16.33;10.02;;;15.70;49.60;;;;;;5030736;28;20447;-71
2022/03/26 09:14:59;;;;;;;15.18;9.57;;;15.80;49.50;;;;;;5032554;28;20403;-71
2022/03/26 09:17:25;;;;;;;17.77;9.88;;;15.80;49.50;;;;;;5029999;28;20025;-71
2022/03/26 09:19:51;;;;;;;16.77;9.80;;;15.90;49.50;;;;;;5031833;28;20503;-72
2022/03/26 09:22:16;;;;;;;16.75;10.15;;;16.00;50.10;;;;;;5030431;28;20399;-69
2022/03/26 09:24:42;;;;;;;15.70;9.82;;;16.00;49.40;;;;;;5030480;28;20029;-69
2022/03/26 09:27:09;;;;;;;16.55;9.70;;;16.00;49.50;;;;;;5030842;28;20025;-72
2022/03/26 09:29:35;;;;;;;15.52;9.68;;;16.00;49.60;;;;;;5030307;28;20033;-72
2022/03/26 09:32:00;;;;;;;17.90;10.10;;;16.10;49.80;;;;;;5029330;28;20080;-72
2022/03/26 09:34:26;;;;;;;17.83;10.90;;;16.20;49.70;;;;;;5028427;28;20025;-72
2022/03/26 09:36:53;;;;;;;20.15;11.50;;;16.30;49.60;;;;;;5025142;28;20034;-72
2022/03/26 09:39:19;;;;;;;17.70;11.07;;;16.30;49.60;;;;;;5023565;28;20059;-72
2022/03/26 09:41:45;;;;;;;18.13;11.00;;;16.40;49.60;;;;;;5020106;28;20029;-72
2022/03/26 09:44:12;;;;;;;14.95;10.70;;;16.40;49.60;;;;;;5022711;28;20049;-72
2022/03/26 09:46:37;;;;;;;16.77;10.38;;;16.40;49.70;;;;;;5026393;28;20037;-72
2022/03/26 09:49:03;;;;;;;13.38;9.43;;;16.40;49.80;;;;;;5029281;28;20040;-71
2022/03/26 09:51:29;;;;;;;15.43;9.27;;;16.40;49.90;;;;;;5027867;28;20068;-70
2022/03/26 09:53:56;;;;;;;14.25;9.35;;;16.50;50.00;;;;;;5034547;28;20145;-70
2022/03/26 09:56:23;;;;;;;12.00;7.78;;;16.50;49.80;;;;;;5029074;28;20420;-68
2022/03/26 09:58:53;;;;;;;13.75;8.32;;;16.60;49.70;;;;;;5028659;28;20027;-70
2022/03/26 10:01:22;;;;;;;13.30;8.65;;;16.60;49.70;;;;;;5024261;28;20476;-70
2022/03/26 10:04:35;;;;;;;12.02;7.75;;;16.70;49.70;;;;;;5030407;28;20025;-70
2022/03/26 10:07:00;;;;;;;;;;;16.70;49.40;;;;;;4961036;28;20501;-70
2022/03/26 10:09:42;;;;;;;11.40;7.28;;;16.70;49.00;;;;;;4960857;28;19917;-69
2022/03/26 10:12:16;;;;;;;15.60;9.27;;;16.70;48.90;;;;;;4997431;28;20037;-69
2022/03/26 10:14:56;;;;;;;12.73;8.05;;;16.80;49.00;;;;;;5024573;28;20033;-71
2022/03/26 10:17:31;;;;;;;11.77;8.02;;;16.90;49.00;;;;;;5027679;28;20446;-68
2022/03/26 10:19:59;;;;;;;13.95;9.18;;;17.00;48.90;;;;;;5028383;28;20400;-69
2022/03/26 10:22:33;;;;;;;12.48;8.65;;;17.00;48.60;;;;;;5011048;28;20041;-70
2022/03/26 10:25:03;;;;;;;12.63;8.57;;;17.00;48.40;;;;;;5025982;28;20550;-70
2022/03/26 10:27:33;;;;;;;12.32;7.90;;;17.00;48.30;;;;;;5026918;28;20395;-69
2022/03/26 10:29:59;;;;;;;11.98;7.97;;;17.10;48.20;;;;;;5024865;28;20083;-72
2022/03/26 10:32:39;;;;;;;10.45;7.25;;;17.20;48.20;;;;;;5030082;28;20521;-72
2022/03/26 10:35:26;;;;;;;8.55;5.88;;;17.20;47.90;;;;;;5034593;28;20483;-71
2022/03/26 10:38:01;;;;;;;12.50;6.57;;;17.30;47.90;;;;;;5031643;28;20491;-72
2022/03/26 10:40:37;;;;;;;10.90;6.78;;;17.40;47.70;;;;;;5033024;28;20037;-72
2022/03/26 10:43:04;;;;;;;7.80;5.45;;;17.40;47.50;;;;;;5033146;28;20593;-69
2022/03/26 10:45:32;;;;;;;14.77;7.75;;;17.40;47.30;;;;;;5034535;28;20440;-69
2022/03/26 10:48:00;;;;;;;8.55;5.80;;;17.40;46.70;;;;;;5028494;28;20025;-69
2022/03/26 10:50:33;;;;;;;7.32;4.80;;;17.40;46.90;;;;;;5038605;28;20605;-68
2022/03/26 10:53:08;;;;;;;8.43;5.30;;;17.50;46.70;;;;;;5044099;28;20669;-71
2022/03/26 10:55:36;;;;;;;9.13;6.32;;;17.50;46.10;;;;;;5037802;28;20021;-70
2022/03/26 10:58:04;;;;;;;7.20;4.75;;;17.40;45.50;;;;;;5033579;28;20021;-71
2022/03/26 11:00:30;;;;;;;7.45;4.53;;;17.50;45.90;;;;;;5034276;28;20021;-68
2022/03/26 11:02:55;;;;;;;7.32;4.43;;;17.60;45.90;;;;;;5036525;28;20052;-68
2022/03/26 11:05:21;;;;;;;8.13;5.07;;;17.70;45.70;;;;;;5041246;28;20087;-68
2022/03/26 11:07:50;;;;;;;10.20;5.68;;;17.80;45.00;;;;;;5036467;28;20017;-69
2022/03/26 11:10:15;;;;;;;11.15;6.22;;;17.90;44.70;;;;;;5041106;28;20057;-69
2022/03/26 11:12:46;;;;;;;11.55;7.20;;;18.00;44.20;;;;;;5035037;28;20056;-69
2022/03/26 11:15:23;;;;;;;14.85;8.82;;;18.00;43.70;;;;;;5034090;28;20031;-69
2022/03/26 11:18:19;;;;;;;15.25;8.15;;;18.00;42.70;;;;;;5029855;28;20026;-69
2022/03/26 11:21:21;;;;;;;13.95;7.25;;;18.10;42.70;;;;;;5033281;28;20052;-69
2022/03/26 11:24:20;;;;;;;11.77;6.97;;;18.00;42.30;;;;;;5034477;28;20597;-69
2022/03/26 11:27:16;;;;;;;18.10;9.70;;;18.10;42.40;;;;;;5033813;28;20018;-69
2022/03/26 11:30:06;;;;;;;13.88;7.65;;;18.10;42.10;;;;;;5039107;28;20479;-69
2022/03/26 11:32:45;;;;;;;12.65;7.57;;;18.20;42.20;;;;;;5039582;28;20478;-68
2022/03/26 11:35:16;;;;;;;13.40;7.55;;;18.30;42.20;;;;;;5037175;28;20395;-68
2022/03/26 11:37:56;;;;;;;13.52;8.27;;;18.30;41.90;;;;;;5035125;28;20025;-68
2022/03/26 11:40:50;;;;;;;13.23;8.38;;;18.40;41.70;;;;;;5042914;28;20029;-69
2022/03/26 11:43:44;;;;;;;13.68;7.40;;;18.40;41.30;;;;;;5011694;28;20115;-69
2022/03/26 11:51:57;;;;;;;12.77;8.05;;;18.80;41.80;;;;;;5031816;28;20403;-68
2022/03/26 11:54:23;;;;;;;12.32;8.02;;;18.80;40.90;;;;;;5032056;28;20021;-67
2022/03/26 11:57:08;;;;;;;10.73;6.70;;;18.90;40.90;;;;;;5033146;28;20028;-67
2022/03/26 11:59:37;;;;;;;13.18;7.28;;;19.00;40.90;;;;;;5030153;28;20514;-68
2022/03/26 12:02:22;;;;;;;9.95;6.32;;;19.10;40.60;;;;;;5033315;28;20044;-69
2022/03/26 12:06:35;;;;;;;9.45;6.43;;;19.20;40.60;;;;;;5031931;28;20025;-70
2022/03/26 12:07:45;;;;;;;10.95;6.70;;;19.20;40.10;;;;;;5028592;28;20037;-69
2022/03/26 12:10:12;;;;;;;10.30;6.18;;;19.00;39.70;;;;;;5032775;28;20365;-68
2022/03/26 12:13:10;;;;;;;10.15;6.50;;;19.10;40.00;;;;;;5031816;28;20087;-69
2022/03/26 12:15:36;;;;;;;10.18;5.80;;;19.20;39.60;;;;;;5002639;28;20396;-68
2022/03/26 12:18:05;;;;;;;10.88;5.50;;;19.30;39.90;;;;;;5042036;28;20472;-69
2022/03/26 12:20:39;;;;;;;8.75;4.82;;;19.50;39.80;;;;;;5031324;28;20036;-69
2022/03/26 12:23:08;;;;;;;9.10;5.65;;;19.70;39.50;;;;;;5033458;28;20017;-69
2022/03/26 12:25:34;;;;;;;9.77;5.72;;;19.80;39.20;;;;;;5035539;28;20021;-69
2022/03/26 12:28:00;;;;;;;8.43;5.15;;;19.80;38.70;;;;;;5038537;28;20160;-68
2022/03/26 12:30:26;;;;;;;7.95;5.20;;;19.90;38.70;;;;;;5036778;28;20091;-68
2022/03/26 12:32:51;;;;;;;10.50;5.45;;;19.90;38.10;;;;;;5034947;28;20024;-69
2022/03/26 12:35:18;;;;;;;9.18;6.32;;;19.90;38.30;;;;;;5035501;28;20496;-68
2022/03/26 12:37:49;;;;;;;11.82;7.65;;;19.90;38.10;;;;;;5041234;28;20540;-68
2022/03/26 12:40:16;;;;;;;12.00;6.57;;;20.00;38.00;;;;;;5033482;28;20012;-68
2022/03/26 12:42:42;;;;;;;11.65;7.28;;;20.10;38.00;;;;;;5030532;28;20025;-68
2022/03/26 12:45:15;;;;;;;13.10;7.72;;;20.10;37.50;;;;;;5031088;28;20099;-69
2022/03/26 12:47:45;;;;;;;15.50;9.27;;;20.00;37.40;;;;;;5031622;28;20025;-69